Flight Track Log - Related Links

Times and Time Zones

All times are in EDT time to prevent confusion due to time zone crossing. See the N934DL flight status page for this flight to view local times or setup timezone preferences in your user account.

Time Position Orientation Groundspeed Altitude Reporting Facility
EDT Latitude Longitude Course Direction KTS MPH feet Rate Location/Type
Sun 11:01:59 AM 40.8167 -73.8667 242° Southwest 185 213 3,000  Level New York TRACON
Sun 11:02:59 AM 40.8833 -73.8833 349° North 243 280 6,900 3,947 Climbing New York TRACON
Sun 11:03:00 AM 40.6895 -74.1210 237° Southwest  Level FlightAware Approximate
Sun 11:03:53 AM 40.9000 -73.9667 285° West 257 296 10,500  Level New York TRACON
Sun 11:04:00 AM 40.6450 -74.2466 244° Southwest  Level FlightAware Approximate
Sun 11:04:53 AM 40.8833 -74.0667 258° West 287 330 12,600  Level New York TRACON
Sun 11:05:00 AM 40.5979 -74.3728 246° West  Level FlightAware Approximate
Sun 11:06:00 AM 40.5551 -74.5016 246° West  Level FlightAware Approximate
Sun 11:07:00 AM 40.5206 -74.6319 242° Southwest  Level FlightAware Approximate
Sun 11:07:05 AM 40.7631 -74.2972 235° Southwest 369 425 16,300  Level New York Center
Sun 11:08:03 AM 40.7122 -74.3986 237° Southwest 374 430 17,000 958 Climbing New York Center
Sun 11:09:04 AM 40.6478 -74.5236 236° Southwest 380 437 18,200 1,770 Climbing New York Center
Sun 11:10:05 AM 40.5775 -74.6347 230° Southwest 386 444 20,600 2,231 Climbing New York Center
Sun 11:11:05 AM 40.5092 -74.7453 231° Southwest 403 464 22,700 2,441 Climbing New York Center
Sun 11:12:03 AM 40.4367 -74.8583 230° Southwest 408 470 25,400 2,824 Climbing New York Center
Sun 11:13:04 AM 40.3683 -74.9661 230° Southwest 403 464 28,300 2,607 Climbing New York Center
Sun 11:14:05 AM 40.3019 -75.0708 230° Southwest 396 456 30,700 1,815 Climbing New York Center
Sun 11:15:03 AM 40.2375 -75.1756 231° Southwest 383 441 31,900 661 Climbing New York Center
Sun 11:16:03 AM 40.1756 -75.2750 231° Southwest 377 434 32,000 400 Climbing New York Center
Sun 11:17:03 AM 40.1111 -75.3767 230° Southwest 372 428 32,700 850 Climbing New York Center
Sun 11:18:03 AM 40.0467 -75.4808 231° Southwest 367 422 33,700 639 Climbing New York Center
Sun 11:19:05 AM 39.9778 -75.5819 228° Southwest 367 422 34,000 150 Climbing New York Center
Sun 11:20:03 AM 39.9111 -75.6856 230° Southwest 367 422 34,000 407 Level New York Center
Sun 11:21:03 AM 39.8461 -75.7892 231° Southwest 367 422 34,800 843 Climbing New York Center
Sun 11:22:04 AM 39.7833 -75.8928 232° Southwest 367 422 35,700 426 Climbing New York Center
Sun 11:23:52 AM 39.6669 -76.0686 229° Southwest 375 432 36,000 107 Climbing Washington Center
Sun 11:24:52 AM 39.6058 -76.1733 233° Southwest 375 432 36,000  Level Washington Center
Sun 11:25:53 AM 39.5367 -76.2750 229° Southwest 375 432 36,000  Level Washington Center
Sun 11:26:53 AM 39.4736 -76.3767 231° Southwest 375 432 36,000  Level Washington Center
Sun 11:27:52 AM 39.4103 -76.4781 231° Southwest 370 426 36,000  Level Washington Center
Sun 11:28:53 AM 39.3408 -76.5792 228° Southwest 375 432 36,000  Level Washington Center
Sun 11:29:53 AM 39.2775 -76.6775 230° Southwest 375 432 36,000  Level Washington Center
Sun 11:30:52 AM 39.2139 -76.7756 230° Southwest 370 426 36,000  Level Washington Center
Sun 11:31:52 AM 39.1503 -76.8764 231° Southwest 370 426 36,000  Level Washington Center
Sun 11:32:53 AM 39.0867 -76.9742 230° Southwest 370 426 36,000  Level Washington Center
Sun 11:33:52 AM 39.0169 -77.0664 226° Southwest 370 426 36,000  Level Washington Center
Sun 11:34:53 AM 38.9428 -77.1503 221° Southwest 365 420 36,000  Level Washington Center
Sun 11:35:52 AM 38.8647 -77.2311 219° Southwest 365 420 36,000  Level Washington Center
Sun 11:36:53 AM 38.7906 -77.3175 222° Southwest 365 420 36,000  Level Washington Center
Sun 11:37:53 AM 38.7122 -77.3981 219° Southwest 365 420 36,000  Level Washington Center
Sun 11:38:53 AM 38.6358 -77.4839 221° Southwest 365 420 36,000  Level Washington Center
Sun 11:39:53 AM 38.5531 -77.5775 222° Southwest 365 420 36,000  Level Washington Center
Sun 11:40:53 AM 38.4744 -77.6603 220° Southwest 365 420 36,000  Level Washington Center
Sun 11:41:53 AM 38.3958 -77.7456 220° Southwest 365 420 36,000  Level Washington Center
Sun 11:42:53 AM 38.3192 -77.8281 220° Southwest 375 432 36,000  Level Washington Center
Sun 11:43:53 AM 38.2406 -77.9128 220° Southwest 375 432 36,000  Level Washington Center
Sun 11:44:53 AM 38.1617 -77.9975 220° Southwest 375 432 36,000  Level Washington Center
Sun 11:45:53 AM 38.0828 -78.0847 221° Southwest 375 432 36,000  Level Washington Center
Sun 11:46:53 AM 38.0208 -78.1511 220° Southwest 375 432 36,000  Level Washington Center
Sun 11:47:53 AM 37.9250 -78.2428 217° Southwest 365 420 36,000  Level Washington Center
Sun 11:48:53 AM 37.8419 -78.3214 217° Southwest 365 420 36,000  Level Washington Center
Sun 11:49:53 AM 37.7589 -78.3997 217° Southwest 375 432 36,000  Level Washington Center
Sun 11:50:53 AM 37.6842 -78.4706 217° Southwest 375 432 36,000  Level Washington Center
Sun 11:51:53 AM 37.6008 -78.5458 216° Southwest 375 432 36,000  Level Washington Center
Sun 11:52:53 AM 37.5197 -78.6214 216° Southwest 375 432 36,000  Level Washington Center
Sun 11:53:53 AM 37.4364 -78.7044 218° Southwest 375 432 36,000  Level Washington Center
Sun 11:54:53 AM 37.3508 -78.7819 216° Southwest 375 432 36,000  Level Washington Center
Sun 11:55:53 AM 37.2611 -78.8617 215° Southwest 375 432 36,000  Level Washington Center
Sun 11:56:53 AM 37.1817 -78.9392 218° Southwest 375 432 36,000  Level Washington Center
Sun 11:57:53 AM 37.0981 -79.0186 217° Southwest 375 432 36,000  Level Washington Center
Sun 11:58:53 AM 37.0125 -79.0956 216° Southwest 375 432 36,000  Level Washington Center
Sun 11:59:53 AM 36.9331 -79.1700 217° Southwest 375 432 36,000  Level Washington Center
Sun 12:00:53 PM 36.8581 -79.2367 215° Southwest 375 432 36,000  Level Washington Center
Sun 12:01:53 PM 36.7764 -79.3131 217° Southwest 375 432 36,000  Level Washington Center
Sun 12:02:53 PM 36.6928 -79.3867 215° Southwest 375 432 36,000  Level Washington Center
Sun 12:03:53 PM 36.6089 -79.4628 216° Southwest 375 432 36,000  Level Washington Center
Sun 12:04:53 PM 36.5272 -79.5364 216° Southwest 375 432 36,000  Level Washington Center
Sun 12:05:53 PM 36.4389 -79.6197 217° Southwest 369 425 36,000  Level Washington Center
Sun 12:07:40 PM 36.2919 -79.7497 216° Southwest 367 422 36,000  Level Atlanta Center
Sun 12:08:41 PM 36.2069 -79.8239 215° Southwest 367 422 36,000  Level Atlanta Center
Sun 12:09:40 PM 36.1361 -79.8892 217° Southwest 367 422 36,000  Level Atlanta Center
Sun 12:10:40 PM 36.0553 -79.9653 217° Southwest 367 422 36,000  Level Atlanta Center
Sun 12:11:41 PM 35.9611 -80.0161 204° Southwest 367 422 36,000  Level Atlanta Center
Sun 12:12:40 PM 35.8647 -80.0644 202° Southwest 372 428 36,000  Level Atlanta Center
Sun 12:13:40 PM 35.7600 -80.1183 203° Southwest 378 435 36,000  Level Atlanta Center
Sun 12:14:41 PM 35.6633 -80.1664 202° Southwest 378 435 36,000  Level Atlanta Center
Sun 12:15:41 PM 35.5669 -80.2169 203° Southwest 372 428 36,000  Level Atlanta Center
Sun 12:16:41 PM 35.4725 -80.2647 202° Southwest 372 428 36,000  Level Atlanta Center
Sun 12:17:40 PM 35.3739 -80.3125 202° Southwest 378 435 36,000  Level Atlanta Center
Sun 12:18:40 PM 35.2772 -80.3600 202° Southwest 378 435 36,000  Level Atlanta Center
Sun 12:21:56 PM 34.9614 -80.5167 202° Southwest 367 422 36,000  Level Jacksonville Center
Sun 12:22:56 PM 34.8664 -80.5622 201° Southwest 372 428 36,000 -50 Level Jacksonville Center
Sun 12:23:56 PM 34.7775 -80.6103 204° Southwest 367 422 35,900  Descending Jacksonville Center
Sun 12:24:56 PM 34.6825 -80.6556 201° Southwest 368 423 36,000 50 Climbing Jacksonville Center
Sun 12:25:56 PM 34.5789 -80.7089 203° Southwest 374 430 36,000  Level Jacksonville Center
Sun 12:26:56 PM 34.4942 -80.7486 201° Southwest 384 442 36,000  Level Jacksonville Center
Sun 12:27:56 PM 34.4011 -80.7914 201° Southwest 381 438 36,000  Level Jacksonville Center
Sun 12:28:56 PM 34.3039 -80.8414 203° Southwest 367 422 36,000  Level Jacksonville Center
Sun 12:29:56 PM 34.2147 -80.8811 200° South 367 422 36,000  Level Jacksonville Center
Sun 12:30:56 PM 34.1194 -80.9311 203° Southwest 367 422 36,000  Level Jacksonville Center
Sun 12:31:56 PM 34.0242 -80.9783 202° Southwest 373 429 36,000 -50 Level Jacksonville Center
Sun 12:32:56 PM 33.9289 -81.0203 200° South 373 429 35,900  Descending Jacksonville Center
Sun 12:33:56 PM 33.8336 -81.0650 201° Southwest 373 429 36,000 50 Climbing Jacksonville Center
Sun 12:34:56 PM 33.7383 -81.1144 203° Southwest 368 423 36,000  Level Jacksonville Center
Sun 12:35:56 PM 33.6450 -81.1636 204° Southwest 374 430 36,000  Level Jacksonville Center
Sun 12:36:56 PM 33.5478 -81.2103 202° Southwest 374 430 36,000  Level Jacksonville Center
Sun 12:37:56 PM 33.4522 -81.2544 201° Southwest 374 430 36,000  Level Jacksonville Center
Sun 12:38:56 PM 33.3569 -81.3036 203° Southwest 374 430 36,000  Level Jacksonville Center
Sun 12:39:56 PM 33.2614 -81.3500 202° Southwest 374 430 36,000  Level Jacksonville Center
Sun 12:40:56 PM 33.1639 -81.3964 202° Southwest 374 430 36,000  Level Jacksonville Center
Sun 12:41:56 PM 33.0706 -81.4450 204° Southwest 374 430 36,000  Level Jacksonville Center
Sun 12:42:56 PM 32.9731 -81.4911 202° Southwest 374 430 36,000  Level Jacksonville Center
Sun 12:43:56 PM 32.8775 -81.5394 203° Southwest 374 430 36,000  Level Jacksonville Center
Sun 12:44:56 PM 32.7797 -81.5831 201° Southwest 374 430 36,000  Level Jacksonville Center
Sun 12:45:56 PM 32.6822 -81.6314 203° Southwest 374 430 36,000  Level Jacksonville Center
Sun 12:46:56 PM 32.5761 -81.6847 203° Southwest 374 430 36,000  Level Jacksonville Center
Sun 12:47:56 PM 32.4764 -81.7328 202° Southwest 374 430 36,000  Level Jacksonville Center
Sun 12:48:56 PM 32.3892 -81.7731 201° Southwest 379 436 36,000  Level Jacksonville Center
Sun 12:49:56 PM 32.2789 -81.8261 202° Southwest 384 442 36,000  Level Jacksonville Center
Sun 12:50:56 PM 32.1894 -81.8689 202° Southwest 389 448 36,000  Level Jacksonville Center
Sun 12:51:56 PM 32.0772 -81.9217 202° Southwest 394 453 36,000  Level Jacksonville Center
Sun 12:52:56 PM 31.9772 -81.9667 201° Southwest 388 447 36,000  Level Jacksonville Center
Sun 12:53:56 PM 31.8836 -82.0069 200° South 393 452 36,000  Level Jacksonville Center
Sun 12:54:56 PM 31.7711 -82.0494 198° South 387 445 36,000  Level Jacksonville Center
Sun 12:55:56 PM 31.6797 -82.0869 199° South 387 445 36,000  Level Jacksonville Center
Sun 12:56:56 PM 31.5733 -82.1317 200° South 387 445 36,000  Level Jacksonville Center
Sun 12:57:56 PM 31.4714 -82.1764 201° Southwest 387 445 36,000  Level Jacksonville Center
Sun 12:58:56 PM 31.3672 -82.2161 198° South 387 445 36,000  Level Jacksonville Center
Sun 12:59:56 PM 31.2608 -82.2583 199° South 393 452 36,000  Level Jacksonville Center
Sun 01:00:56 PM 31.1567 -82.2978 198° South 393 452 36,000  Level Jacksonville Center
Sun 01:01:56 PM 31.0503 -82.3397 199° South 398 458 36,000  Level Jacksonville Center
Sun 01:02:56 PM 30.9483 -82.3814 199° South 398 458 36,000  Level Jacksonville Center
Sun 01:03:56 PM 30.8378 -82.4256 199° South 405 466 36,000  Level Jacksonville Center
Sun 01:04:56 PM 30.7231 -82.4261 180° South 405 466 36,000  Level Jacksonville Center
Sun 01:05:56 PM 30.6017 -82.4100 173° South 415 478 36,000  Level Jacksonville Center
Sun 01:06:56 PM 30.4806 -82.3911 172° South 432 497 36,000  Level Jacksonville Center
Sun 01:07:56 PM 30.3636 -82.3750 173° South 432 497 36,000  Level Jacksonville Center
Sun 01:08:56 PM 30.2425 -82.3564 172° South 437 503 36,000  Level Jacksonville Center
Sun 01:09:56 PM 30.1214 -82.3378 172° South 437 503 36,000 -950 Level Jacksonville Center
Sun 01:10:56 PM 30.0000 -82.3169 172° South 437 503 34,100 -2,400 Descending Jacksonville Center
Sun 01:11:56 PM 29.8831 -82.3008 173° South 437 503 31,200 -2,950 Descending Jacksonville Center
Sun 01:12:56 PM 29.7639 -82.2825 172° South 437 503 28,200 -3,100 Descending Jacksonville Center
Sun 01:13:56 PM 29.6450 -82.2617 171° South 437 503 25,000 -2,750 Descending Jacksonville Center
Sun 01:14:56 PM 29.5278 -82.2433 172° South 437 503 22,700 -1,850 Descending Jacksonville Center
Sun 01:15:56 PM 29.4150 -82.2275 173° South 426 490 21,300 -1,450 Descending Jacksonville Center
Sun 01:16:56 PM 29.3022 -82.2092 172° South 426 490 19,800 -1,500 Descending Jacksonville Center
Sun 01:17:56 PM 29.1894 -82.1933 173° South 421 484 18,300 -1,300 Descending Jacksonville Center
Sun 01:18:56 PM 29.0786 -82.1775 173° South 414 476 17,200 -1,200 Descending Jacksonville Center
Sun 01:19:56 PM 28.9700 -82.1592 172° South 403 464 15,900 -1,350 Descending Jacksonville Center
Sun 01:20:56 PM 28.8531 -82.1458 174° South 397 457 14,500 -949 Descending Jacksonville Center
Sun 01:22:53 PM 28.6500 -82.1167 173° South 378 435 13,100 -678 Descending Tampa TRACON
Sun 01:23:53 PM 28.5500 -82.1000 172° South 361 415 12,500 -550 Descending Tampa TRACON
Sun 01:24:53 PM 28.4500 -82.1000 180° South 358 412 12,000 -667 Descending Tampa TRACON
Sun 01:25:59 PM 28.3500 -82.1167 188° South 351 404 11,100 -476 Descending Tampa TRACON
Sun 01:26:59 PM 28.2500 -82.1333 188° South 346 398 11,000 -474 Descending Tampa TRACON
Sun 01:27:53 PM 28.1667 -82.1500 190° South 334 384 10,200 -1,000 Descending Tampa TRACON
Sun 01:28:47 PM 28.1000 -82.1667 192° South 285 328 9,200 -1,579 Descending Tampa TRACON
Sun 01:29:47 PM 28.0167 -82.1833 190° South 282 325 7,200 -1,600 Descending Tampa TRACON
Sun 01:30:47 PM 27.9500 -82.2000 192° South 279 321 6,000 -550 Descending Tampa TRACON
Sun 01:31:47 PM 27.8667 -82.2167 190° South 268 308 6,100  Climbing Tampa TRACON
Sun 01:32:54 PM 27.7833 -82.2167 180° South 268 308 6,000  Descending Tampa TRACON
Sun 01:33:48 PM 27.7333 -82.2667 222° Southwest 268 308 6,100  Climbing Tampa TRACON
Sun 01:34:54 PM 27.6833 -82.3500 236° Southwest 265 305 6,000 -714 Descending Tampa TRACON
Sun 01:35:54 PM 27.6333 -82.4167 230° Southwest 267 307 4,600 -1,350 Descending Tampa TRACON
Sun 01:36:54 PM 27.6000 -82.4667 233° Southwest 263 303 3,300 -1,250 Descending Tampa TRACON
Sun 01:37:54 PM 27.5500 -82.5333 230° Southwest 255 293 2,100 -684 Descending Tampa TRACON
Sun 01:38:48 PM 27.5167 -82.5833 233° Southwest 236 272 2,000 -111 Descending Tampa TRACON

Login

Don't have an account? Register now (free) for customized features, flight alerts, and more!